Time;durP1;ratioP1;P1;durP2;ratioP2;P2;SDS_P1;SDS_P2;PMS_P1;PMS_P2;Temp;Humidity;BMP_temperature;BMP_pressure;BME280_temperature;BME280_humidity;BME280_pressure;Samples;Min_cycle;Max_cycle;Signal;HPM_P1;HPM_P2
2021/04/10 00:00:28;;;;;;;0.30;0.30;;;;;;;22.38;29.10;94043.38;4991915;28;20053;-61
2021/04/10 00:02:53;;;;;;;0.60;0.40;;;;;;;22.37;29.33;94043.66;4977176;28;20162;-62
2021/04/10 00:05:21;;;;;;;0.40;0.30;;;;;;;22.34;29.08;94031.78;4974714;28;20018;-61
2021/04/10 00:07:46;;;;;;;0.40;0.40;;;;;;;22.35;29.28;94041.31;4974233;28;20081;-62
2021/04/10 00:10:12;;;;;;;0.40;0.30;;;;;;;22.38;29.07;94039.94;5007594;28;20026;-61
2021/04/10 00:12:37;;;;;;;0.73;0.40;;;;;;;22.37;29.04;94043.66;5003362;28;20125;-61
2021/04/10 00:15:07;;;;;;;0.40;0.40;;;;;;;22.38;29.02;94034.66;4962757;28;20026;-62
2021/04/10 00:17:33;;;;;;;0.40;0.40;;;;;;;22.38;29.01;94043.38;4978349;28;20030;-61
2021/04/10 00:19:59;;;;;;;0.50;0.43;;;;;;;22.37;29.16;94031.22;5010077;28;20085;-61
2021/04/10 00:22:25;;;;;;;0.40;0.40;;;;;;;22.39;29.04;94033.56;4977969;28;20168;-62
2021/04/10 00:24:53;;;;;;;0.82;0.40;;;;;;;22.38;29.04;94039.94;4988192;28;20023;-61
2021/04/10 00:27:19;;;;;;;0.40;0.40;;;;;;;22.37;29.39;94039.16;5008087;28;20106;-62
2021/04/10 00:29:44;;;;;;;0.40;0.40;;;;;;;22.35;29.14;94029.91;5008472;28;20036;-61
2021/04/10 00:32:10;;;;;;;0.35;0.35;;;;;;;22.36;29.17;94037.56;4994353;28;20030;-62
2021/04/10 00:34:35;;;;;;;0.40;0.40;;;;;;;22.37;29.42;94043.66;4978235;28;20030;-61
2021/04/10 00:37:03;;;;;;;0.40;0.40;;;;;;;22.39;29.14;94042.31;5009719;28;20058;-62
2021/04/10 00:39:30;;;;;;;0.55;0.40;;;;;;;22.36;29.22;94042.88;4992852;28;20057;-62
2021/04/10 00:41:55;;;;;;;0.47;0.40;;;;;;;22.36;29.27;94037.56;4998288;28;20038;-62
2021/04/10 00:44:21;;;;;;;0.40;0.40;;;;;;;22.37;29.28;94038.34;4983694;28;20026;-61
2021/04/10 00:46:47;;;;;;;0.40;0.40;;;;;;;22.37;29.20;94043.66;5004056;28;20030;-61
2021/04/10 00:49:12;;;;;;;0.40;0.38;;;;;;;22.38;29.29;94042.59;5005443;28;20053;-61
2021/04/10 00:51:38;;;;;;;0.30;0.30;;;;;;;22.37;29.00;94043.66;4990410;28;20029;-62
2021/04/10 00:54:06;;;;;;;0.50;0.40;;;;;;;22.37;29.33;94043.66;4974446;28;20089;-62
2021/04/10 00:56:33;;;;;;;0.50;0.50;;;;;;;22.36;29.12;94036.78;4985949;28;20034;-62
2021/04/10 00:58:59;;;;;;;0.40;0.40;;;;;;;22.37;29.13;94031.22;5027265;28;20027;-61
2021/04/10 01:01:25;;;;;;;0.47;0.40;;;;;;;22.36;29.28;94028.84;5026127;28;20033;-62
2021/04/10 01:03:51;;;;;;;0.40;0.40;;;;;;;22.37;29.27;94033.88;4977815;28;20026;-61
2021/04/10 01:06:17;;;;;;;0.50;0.50;;;;;;;22.37;29.41;94033.06;4990217;28;20034;-62
2021/04/10 01:08:42;;;;;;;0.40;0.40;;;;;;;22.36;29.03;94039.44;4981450;28;20117;-61
2021/04/10 01:11:29;;;;;;;0.75;0.40;;;;;;;22.39;29.00;94036.22;4986759;28;20027;-61
2021/04/10 01:14:16;;;;;;;0.50;0.40;;;;;;;22.40;28.92;94037.81;4994455;28;20030;-62
2021/04/10 01:16:46;;;;;;;0.40;0.40;;;;;;;22.37;29.26;94038.34;4990658;28;20050;-62
2021/04/10 01:19:18;;;;;;;0.40;0.40;;;;;;;22.37;29.28;94035.72;4994204;28;20042;-62
2021/04/10 01:21:49;;;;;;;0.40;0.40;;;;;;;22.37;29.13;94028.56;4993155;28;20026;-61
2021/04/10 01:24:17;;;;;;;;;;;;;;;22.40;29.00;94029.88;4986694;28;20085;-61
2021/04/10 01:26:56;;;;;;;0.50;0.50;;;;;;;22.42;29.24;94030.38;4992461;28;19913;-61
2021/04/10 01:29:24;;;;;;;0.40;0.40;;;;;;;22.38;29.42;94021.41;4976196;28;20030;-61
2021/04/10 01:31:53;;;;;;;0.75;0.40;;;;;;;22.38;29.23;94021.41;5006464;28;20022;-62
2021/04/10 01:34:25;;;;;;;0.40;0.40;;;;;;;22.38;29.06;94024.84;5010150;28;20018;-62
2021/04/10 01:36:53;;;;;;;0.52;0.50;;;;;;;22.37;29.32;94025.13;4975763;28;20018;-62
2021/04/10 01:39:18;;;;;;;0.40;0.40;;;;;;;22.36;29.03;94023.56;4979844;28;20049;-61
2021/04/10 01:41:45;;;;;;;0.40;0.40;;;;;;;22.35;29.01;94021.97;5007393;28;20022;-61
2021/04/10 01:44:12;;;;;;;0.52;0.50;;;;;;;22.37;29.34;94019.81;5024768;28;20029;-61
2021/04/10 01:46:38;;;;;;;0.30;0.30;;;;;;;22.32;29.15;94014.59;4993255;28;20085;-61
2021/04/10 01:49:04;;;;;;;0.30;0.30;;;;;;;22.36;29.11;94015.59;4976588;28;20030;-62
2021/04/10 01:51:29;;;;;;;0.30;0.30;;;;;;;22.35;29.11;94017.47;5004025;28;20030;-61
2021/04/10 01:53:57;;;;;;;0.32;0.32;;;;;;;22.36;29.29;94016.38;5009237;28;20026;-61
2021/04/10 01:56:23;;;;;;;0.43;0.40;;;;;;;22.31;29.31;94008.47;5019489;28;20150;-61
2021/04/10 01:58:49;;;;;;;0.50;0.40;;;;;;;22.35;29.16;94016.66;5025763;28;20105;-61
2021/04/10 02:01:16;;;;;;;0.50;0.40;;;;;;;22.37;29.38;94019.81;5008869;28;20026;-61
2021/04/10 02:03:45;;;;;;;0.40;0.40;;;;;;;22.35;29.42;94020.13;4992720;28;20034;-61
2021/04/10 02:06:11;;;;;;;0.30;0.30;;;;;;;22.36;28.88;94020.91;5008185;28;20037;-62
2021/04/10 02:08:38;;;;;;;0.47;0.40;;;;;;;22.37;29.03;94033.06;4977294;28;20027;-62
2021/04/10 02:11:05;;;;;;;0.32;0.32;;;;;;;22.36;29.26;94031.50;5005145;28;20027;-61
2021/04/10 02:13:30;;;;;;;0.30;0.30;;;;;;;22.36;29.22;94034.16;4989151;28;20038;-62
2021/04/10 02:15:57;;;;;;;0.30;0.30;;;;;;;22.36;29.42;94032.28;4992113;28;20042;-62
2021/04/10 02:18:22;;;;;;;0.30;0.30;;;;;;;22.35;29.36;94029.91;4996404;28;20029;-61
2021/04/10 02:20:50;;;;;;;0.40;0.40;;;;;;;22.37;29.30;94030.41;4978577;28;20033;-61
2021/04/10 02:23:15;;;;;;;0.40;0.40;;;;;;;22.37;29.39;94033.06;4992069;28;20094;-62
2021/04/10 02:25:41;;;;;;;0.40;0.40;;;;;;;22.34;29.33;94018.53;5025035;28;20113;-61
2021/04/10 02:28:07;;;;;;;0.40;0.40;;;;;;;22.35;29.16;94019.31;5025259;28;20030;-61
2021/04/10 02:30:33;;;;;;;0.30;0.30;;;;;;;22.36;29.07;94016.38;4995250;28;20034;-62
2021/04/10 02:33:04;;;;;;;0.30;0.30;;;;;;;22.37;29.26;94017.97;4977630;28;20109;-62
2021/04/10 02:35:36;;;;;;;0.40;0.40;;;;;;;22.38;29.26;94021.41;4991377;28;20045;-62
2021/04/10 02:38:03;;;;;;;0.32;0.32;;;;;;;22.35;29.34;94017.47;4977018;28;20037;-62
2021/04/10 02:40:35;;;;;;;0.88;0.40;;;;;;;22.38;29.25;94019.53;4995657;28;20022;-62
2021/04/10 02:43:02;;;;;;;0.40;0.40;;;;;;;22.37;29.05;94019.81;4983220;28;20034;-62
2021/04/10 02:45:28;;;;;;;0.43;0.43;;;;;;;22.36;29.08;94018.25;5023894;28;20026;-62
2021/04/10 02:47:59;;;;;;;0.40;0.40;;;;;;;22.36;29.31;94020.91;4960299;28;20029;-61
2021/04/10 02:50:29;;;;;;;;;;;;;;;22.41;29.01;94023.50;4976597;28;20034;-61
2021/04/10 02:52:59;;;;;;;0.28;0.28;;;;;;;22.40;28.98;94017.41;5006623;28;19929;-62
2021/04/10 02:55:35;;;;;;;0.50;0.50;;;;;;;22.40;29.11;94013.97;4988876;28;20077;-62
2021/04/10 02:58:02;;;;;;;0.40;0.40;;;;;;;22.37;28.99;94014.53;4989260;28;20037;-61
2021/04/10 03:00:28;;;;;;;0.40;0.40;;;;;;;22.34;29.13;94009.81;4997700;28;20035;-61
2021/04/10 03:02:55;;;;;;;0.40;0.40;;;;;;;22.36;29.36;94007.66;4990841;28;20038;-61
2021/04/10 03:05:20;;;;;;;0.50;0.40;;;;;;;22.35;29.13;94008.72;4991567;28;20070;-61
2021/04/10 03:07:48;;;;;;;0.40;0.40;;;;;;;22.38;29.03;94008.16;4979504;28;20073;-61
2021/04/10 03:10:15;;;;;;;0.30;0.30;;;;;;;22.36;29.37;94016.38;4997731;28;20031;-62
2021/04/10 03:12:41;;;;;;;0.35;0.35;;;;;;;22.36;29.26;94016.38;5007276;28;20058;-62
2021/04/10 03:15:12;;;;;;;0.40;0.40;;;;;;;22.37;29.37;94019.81;4990911;28;20061;-62
2021/04/10 03:17:38;;;;;;;0.30;0.30;;;;;;;22.32;29.52;94009.28;4975416;28;20026;-62
2021/04/10 03:20:05;;;;;;;0.40;0.40;;;;;;;22.35;29.35;94008.72;5020299;28;20022;-61
2021/04/10 03:22:30;;;;;;;0.60;0.40;;;;;;;22.33;29.44;94006.38;4989138;28;20062;-61
2021/04/10 03:24:56;;;;;;;1.13;0.45;;;;;;;22.35;29.13;94012.19;5011707;28;20030;-62
2021/04/10 03:27:24;;;;;;;0.25;0.25;;;;;;;22.34;29.37;94018.53;4956807;28;20042;-62
2021/04/10 03:29:49;;;;;;;0.30;0.30;;;;;;;22.36;29.33;94020.91;4995354;28;20077;-62
2021/04/10 03:32:15;;;;;;;0.30;0.30;;;;;;;22.37;29.36;94017.16;5008976;28;20030;-62
2021/04/10 03:34:40;;;;;;;0.32;0.32;;;;;;;22.36;29.25;94020.91;4986217;28;20015;-62
2021/04/10 03:37:06;;;;;;;0.30;0.30;;;;;;;22.35;29.22;94020.13;5022037;28;20029;-61
2021/04/10 03:39:36;;;;;;;0.40;0.40;;;;;;;22.35;29.39;94020.13;4973875;28;20054;-61
2021/04/10 03:42:02;;;;;;;;;;;;;;;22.40;29.08;94021.91;4988426;28;20034;-62
2021/04/10 03:44:28;;;;;;;0.30;0.30;;;;;;;22.39;29.11;94021.13;5009566;28;19917;-62
2021/04/10 03:46:54;;;;;;;0.40;0.40;;;;;;;22.37;29.33;94015.34;4994181;28;20058;-62
2021/04/10 03:49:20;;;;;;;0.40;0.30;;;;;;;22.37;29.20;94011.88;5013332;28;20027;-62
2021/04/10 03:51:52;;;;;;;0.38;0.38;;;;;;;22.39;29.20;94026.44;4984500;28;20046;-62
2021/04/10 03:54:17;;;;;;;0.47;0.40;;;;;;;22.35;29.47;94019.31;4993239;28;20068;-62
2021/04/10 03:56:43;;;;;;;0.40;0.40;;;;;;;22.36;29.44;94015.59;5012017;28;20118;-61
2021/04/10 03:59:09;;;;;;;0.30;0.30;;;;;;;22.35;29.42;94014.00;4995063;28;20018;-62
2021/04/10 04:01:34;;;;;;;0.30;0.30;;;;;;;22.34;29.28;94007.94;5009719;28;20030;-61
2021/04/10 04:04:00;;;;;;;0.40;0.40;;;;;;;22.35;29.38;94011.38;4985986;28;20105;-61
2021/04/10 04:06:25;;;;;;;0.32;0.32;;;;;;;22.34;29.22;94018.53;5009573;28;20035;-61
2021/04/10 04:08:55;;;;;;;0.30;0.30;;;;;;;22.35;29.31;94019.31;4983469;28;20042;-61
2021/04/10 04:11:21;;;;;;;0.30;0.30;;;;;;;22.36;29.28;94023.56;4976141;28;20034;-61
2021/04/10 04:13:46;;;;;;;0.40;0.40;;;;;;;22.35;29.43;94014.00;5013499;28;20037;-62
2021/04/10 04:16:12;;;;;;;0.40;0.40;;;;;;;22.36;29.21;94020.91;4995008;28;20125;-62
2021/04/10 04:18:37;;;;;;;0.40;0.40;;;;;;;22.36;29.45;94016.38;4994571;28;20089;-62
2021/04/10 04:21:03;;;;;;;0.45;0.45;;;;;;;22.36;29.45;94018.25;4978613;28;20033;-62
2021/04/10 04:23:29;;;;;;;0.40;0.40;;;;;;;22.35;29.36;94014.00;4977539;28;20026;-61
2021/04/10 04:26:05;;;;;;;0.50;0.40;;;;;;;22.39;29.08;94023.78;5006133;28;20439;-61
2021/04/10 04:28:30;;;;;;;0.30;0.30;;;;;;;22.35;29.14;94011.38;4994712;28;20250;-62
2021/04/10 04:30:57;;;;;;;0.40;0.40;;;;;;;22.35;29.38;94019.31;4995370;28;20045;-61
2021/04/10 04:33:23;;;;;;;0.30;0.30;;;;;;;22.36;29.05;94020.91;5010094;28;20125;-62
2021/04/10 04:35:48;;;;;;;0.30;0.30;;;;;;;22.36;29.36;94015.59;5008596;28;20126;-62
2021/04/10 04:38:14;;;;;;;0.30;0.30;;;;;;;22.36;29.00;94019.03;5026289;28;20026;-62
2021/04/10 04:40:39;;;;;;;0.40;0.40;;;;;;;22.35;29.51;94017.47;4978123;28;20026;-61
2021/04/10 04:43:05;;;;;;;0.50;0.40;;;;;;;22.36;29.42;94032.28;5026292;28;20038;-62
2021/04/10 04:45:31;;;;;;;0.40;0.40;;;;;;;22.36;29.29;94028.84;5010320;28;20122;-62
2021/04/10 04:47:56;;;;;;;0.30;0.30;;;;;;;22.36;29.53;94034.16;5010375;28;20041;-61
2021/04/10 04:50:23;;;;;;;0.50;0.40;;;;;;;22.36;29.46;94026.19;4994339;28;20124;-61
2021/04/10 04:52:48;;;;;;;0.30;0.30;;;;;;;22.36;29.10;94034.94;4985136;28;20026;-62
2021/04/10 04:55:16;;;;;;;0.35;0.35;;;;;;;22.37;29.11;94041.00;4994704;28;20120;-61
2021/04/10 04:57:41;;;;;;;0.35;0.35;;;;;;;22.31;29.40;94034.97;4999574;28;20031;-61
2021/04/10 05:00:07;;;;;;;0.30;0.30;;;;;;;22.35;29.03;94043.97;4993558;28;20034;-61
2021/04/10 05:02:34;;;;;;;0.45;0.40;;;;;;;22.36;29.30;94040.22;5010331;28;20030;-61
2021/04/10 05:04:59;;;;;;;0.30;0.30;;;;;;;22.36;28.99;94039.44;4992488;28;20057;-62
2021/04/10 05:07:25;;;;;;;0.30;0.30;;;;;;;22.34;29.46;94046.88;4994087;28;20034;-62
2021/04/10 05:09:50;;;;;;;0.40;0.40;;;;;;;22.32;29.20;94041.09;4994473;28;20030;-61
2021/04/10 05:12:16;;;;;;;0.40;0.40;;;;;;;22.35;29.03;94045.81;5019901;28;20038;-62
2021/04/10 05:14:42;;;;;;;0.40;0.40;;;;;;;22.34;29.43;94041.59;4993931;28;20022;-61
2021/04/10 05:17:07;;;;;;;0.35;0.35;;;;;;;22.35;29.30;94053.75;4993316;28;20035;-62
2021/04/10 05:19:36;;;;;;;0.50;0.50;;;;;;;22.36;29.16;94048.19;5026672;28;20026;-62
2021/04/10 05:22:05;;;;;;;0.30;0.30;;;;;;;22.37;29.30;94054.25;4978846;28;20041;-60
2021/04/10 05:24:30;;;;;;;0.40;0.40;;;;;;;22.36;29.03;94047.41;5009760;28;20026;-61
2021/04/10 05:26:58;;;;;;;0.30;0.30;;;;;;;22.36;29.07;94052.69;4995845;28;20144;-61
2021/04/10 05:29:23;;;;;;;0.47;0.47;;;;;;;22.36;29.13;94052.69;4993956;28;20034;-61
2021/04/10 05:31:49;;;;;;;0.38;0.38;;;;;;;22.36;29.07;94052.69;5009322;28;20073;-61
2021/04/10 05:34:15;;;;;;;0.30;0.30;;;;;;;22.35;29.17;94048.44;4993865;28;20019;-61
2021/04/10 05:36:44;;;;;;;0.30;0.30;;;;;;;22.37;29.21;94056.91;4960788;28;20089;-61
2021/04/10 05:39:10;;;;;;;0.33;0.30;;;;;;;22.34;29.27;94054.84;5002323;28;20027;-61
2021/04/10 05:41:35;;;;;;;0.30;0.30;;;;;;;22.36;29.13;94065.94;4999423;28;20037;-61
2021/04/10 05:44:01;;;;;;;0.50;0.32;;;;;;;22.35;29.11;94059.03;4978176;28;20026;-61
2021/04/10 05:46:27;;;;;;;0.30;0.30;;;;;;;22.35;29.28;94072.28;4974498;28;20041;-62
2021/04/10 05:48:54;;;;;;;0.30;0.30;;;;;;;22.36;29.39;94068.59;4985542;28;20129;-61
2021/04/10 05:51:23;;;;;;;0.35;0.35;;;;;;;22.35;29.36;94064.34;5008220;28;20030;-62
2021/04/10 05:53:49;;;;;;;0.40;0.40;;;;;;;22.36;29.15;94064.06;4985252;28;20029;-62
2021/04/10 05:56:15;;;;;;;0.35;0.35;;;;;;;22.35;29.19;94061.69;4989959;28;20061;-61
2021/04/10 05:58:40;;;;;;;0.30;0.30;;;;;;;22.34;29.04;94060.91;4975583;28;20058;-61
2021/04/10 06:01:09;;;;;;;0.30;0.30;;;;;;;22.36;29.07;94074.66;4995310;28;20035;-61
2021/04/10 06:03:34;;;;;;;0.70;0.50;;;;;;;22.37;29.24;94064.84;4985214;28;20031;-61
2021/04/10 06:06:00;;;;;;;0.50;0.30;;;;;;;22.35;29.31;94061.69;5000443;28;20029;-62
2021/04/10 06:08:25;;;;;;;0.50;0.50;;;;;;;22.37;29.04;94070.16;5006516;28;20035;-61
2021/04/10 06:10:51;;;;;;;0.40;0.40;;;;;;;22.35;29.46;94073.09;4997711;28;20036;-61
2021/04/10 06:13:18;;;;;;;0.50;0.32;;;;;;;22.35;29.39;94075.75;4973154;28;20030;-61
2021/04/10 06:15:46;;;;;;;0.38;0.38;;;;;;;22.34;29.11;94066.22;4977928;28;20017;-61
2021/04/10 06:18:12;;;;;;;0.50;0.50;;;;;;;22.36;29.47;94069.38;4976533;28;20034;-61
2021/04/10 06:20:38;;;;;;;0.50;0.50;;;;;;;22.35;29.37;94072.28;4974242;28;20034;-61
2021/04/10 06:23:04;;;;;;;0.30;0.30;;;;;;;22.35;29.20;94078.41;4993080;28;20086;-61
2021/04/10 06:25:30;;;;;;;0.38;0.38;;;;;;;22.35;29.21;94078.41;4989926;28;20033;-61
2021/04/10 06:28:02;;;;;;;0.30;0.30;;;;;;;22.37;29.12;94083.41;4976358;28;20046;-62
2021/04/10 06:30:32;;;;;;;0.40;0.40;;;;;;;22.37;29.22;94080.75;4987739;28;20022;-61
2021/04/10 06:32:58;;;;;;;0.40;0.40;;;;;;;22.37;29.07;94084.22;4992372;28;20022;-61
2021/04/10 06:35:25;;;;;;;0.30;0.30;;;;;;;22.36;29.35;94079.19;5001216;28;20283;-61
2021/04/10 06:37:50;;;;;;;0.30;0.30;;;;;;;22.35;29.36;94077.59;4975601;28;20033;-61
2021/04/10 06:40:16;;;;;;;0.88;0.45;;;;;;;22.34;29.38;94076.81;4982718;28;20030;-64
2021/04/10 06:42:42;;;;;;;2.13;0.60;;;;;;;22.33;29.66;94074.44;4974579;28;20034;-61
2021/04/10 06:45:08;;;;;;;2.28;0.65;;;;;;;22.32;29.80;94084.25;5000747;28;20023;-64
2021/04/10 06:47:34;;;;;;;3.70;0.88;;;;;;;22.32;29.93;94084.25;5024918;28;20101;-62
2021/04/10 06:50:01;;;;;;;1.35;0.77;;;;;;;22.35;30.01;94082.88;4970799;28;20065;-62
2021/04/10 06:52:27;;;;;;;0.80;0.60;;;;;;;22.36;29.92;94081.84;4989189;28;20038;-62
2021/04/10 06:55:12;;;;;;;3.40;0.75;;;;;;;22.40;30.00;94080.97;4981644;28;20026;-63
2021/04/10 06:57:59;;;;;;;2.95;0.60;;;;;;;22.43;29.98;94095.56;4991656;28;20023;-62
2021/04/10 07:00:32;;;;;;;2.50;0.90;;;;;;;22.43;29.31;94091.03;5004943;28;20034;-62
2021/04/10 07:02:59;;;;;;;1.35;0.88;;;;;;;22.40;29.36;94093.44;5004305;28;20035;-63
2021/04/10 07:05:25;;;;;;;2.30;1.35;;;;;;;22.41;28.43;94092.38;4974000;28;20092;-62
2021/04/10 07:07:51;;;;;;;4.00;1.20;;;;;;;22.41;29.09;94098.47;5006240;28;20026;-63
2021/04/10 07:10:16;;;;;;;1.88;1.20;;;;;;;22.43;29.10;94103.50;4960093;28;20069;-62
2021/04/10 07:12:42;;;;;;;2.30;1.10;;;;;;;22.41;29.05;94095.81;4975638;28;20061;-62
2021/04/10 07:15:09;;;;;;;1.65;0.88;;;;;;;22.45;28.86;94098.72;5002528;28;20025;-63
2021/04/10 07:17:35;;;;;;;2.15;0.98;;;;;;;22.43;29.17;94100.84;4998603;28;20022;-63
2021/04/10 07:20:30;;;;;;;1.25;1.10;;;;;;;22.48;29.15;94107.94;4989726;28;20049;-62
2021/04/10 07:23:05;;;;;;;3.92;0.90;;;;;;;22.44;29.08;94099.75;4991081;28;20041;-62
2021/04/10 07:25:33;;;;;;;1.17;0.80;;;;;;;22.45;29.30;94098.72;4996387;28;20030;-62
2021/04/10 07:28:27;;;;;;;2.50;0.98;;;;;;;22.51;29.10;94102.09;4990804;28;20113;-60
2021/04/10 07:31:08;;;;;;;2.13;0.90;;;;;;;22.49;29.10;94102.38;4996046;28;20026;-60
2021/04/10 07:33:38;;;;;;;1.73;0.90;;;;;;;22.48;29.41;94098.13;5011547;28;20041;-60
2021/04/10 07:36:05;;;;;;;1.55;0.90;;;;;;;22.43;29.17;94091.03;4979334;28;20022;-60
2021/04/10 07:38:35;;;;;;;1.00;0.85;;;;;;;22.49;29.21;94099.72;4997458;28;20033;-60
2021/04/10 07:41:04;;;;;;;1.58;0.75;;;;;;;22.49;29.36;94099.72;4965716;28;20029;-59
2021/04/10 07:43:39;;;;;;;1.45;0.63;;;;;;;22.47;29.41;94090.50;5012438;28;20125;-59
2021/04/10 07:46:14;;;;;;;1.08;0.77;;;;;;;22.50;29.33;94095.22;4996002;28;20249;-60
2021/04/10 07:48:40;;;;;;;1.17;0.73;;;;;;;22.48;29.29;94100.00;4989544;28;20034;-60
2021/04/10 07:51:15;;;;;;;1.40;1.05;;;;;;;22.49;29.20;94086.47;5010098;28;20061;-65
2021/04/10 07:53:41;;;;;;;1.52;0.80;;;;;;;22.46;29.23;94087.03;4994484;28;20061;-64
2021/04/10 07:56:08;;;;;;;2.05;1.00;;;;;;;22.47;29.15;94079.88;4991561;28;20117;-64
2021/04/10 07:58:38;;;;;;;1.30;0.80;;;;;;;22.49;29.54;94083.81;4978701;28;20084;-71
2021/04/10 08:01:09;;;;;;;2.35;1.02;;;;;;;22.53;29.92;94078.75;4967792;28;20026;-63
2021/04/10 08:03:35;;;;;;;1.13;0.80;;;;;;;22.51;29.85;94079.03;4991535;28;20018;-62
2021/04/10 08:06:21;;;;;;;1.77;0.77;;;;;;;22.54;29.52;94075.84;4966825;28;20125;-63
2021/04/10 08:08:57;;;;;;;1.52;0.73;;;;;;;22.55;29.92;94064.16;4990325;28;20034;-62
2021/04/10 08:11:33;;;;;;;3.78;1.02;;;;;;;22.56;29.86;94065.75;5005021;28;20121;-65
2021/04/10 08:14:01;;;;;;;2.05;0.75;;;;;;;22.52;29.96;94059.41;4998622;28;20048;-67
2021/04/10 08:16:28;;;;;;;1.55;0.98;;;;;;;22.55;29.83;94068.66;4994505;28;20030;-67
2021/04/10 08:18:59;;;;;;;3.20;0.90;;;;;;;22.56;29.77;94062.28;4992868;28;20042;-67
2021/04/10 08:21:32;;;;;;;;;;;;;;;22.61;29.59;94065.66;5002876;28;20173;-67
2021/04/10 08:24:22;;;;;;;2.30;0.80;;;;;;;22.59;29.63;94062.50;4996367;28;19918;-67
2021/04/10 08:26:55;;;;;;;1.05;0.80;;;;;;;22.62;29.49;94059.31;5019707;28;20018;-67
2021/04/10 08:29:21;;;;;;;0.77;0.60;;;;;;;22.60;29.65;94066.75;4996915;28;20045;-67
2021/04/10 08:31:49;;;;;;;2.05;0.70;;;;;;;22.61;29.33;94059.59;4993550;28;20023;-68
2021/04/10 08:34:15;;;;;;;2.70;0.70;;;;;;;22.59;29.57;94067.81;4993532;28;20029;-67
2021/04/10 08:36:42;;;;;;;1.58;0.80;;;;;;;22.60;29.29;94063.31;5009704;28;20030;-68
2021/04/10 08:39:10;;;;;;;1.55;0.80;;;;;;;22.59;29.38;94056.44;4978143;28;20102;-62
2021/04/10 08:41:41;;;;;;;2.50;0.77;;;;;;;22.58;29.26;94057.50;4979773;28;20022;-62
2021/04/10 08:44:08;;;;;;;2.10;0.85;;;;;;;22.60;29.24;94063.31;4979702;28;20033;-63
2021/04/10 08:46:36;;;;;;;2.13;0.95;;;;;;;22.58;29.07;94054.84;5024442;28;20030;-63
2021/04/10 08:49:02;;;;;;;2.78;0.80;;;;;;;22.54;29.49;94054.63;4957261;28;20022;-63
2021/04/10 08:51:30;;;;;;;1.75;0.63;;;;;;;22.57;29.01;94058.56;4977784;28;20026;-63
2021/04/10 08:53:57;;;;;;;0.75;0.60;;;;;;;22.55;29.05;94055.41;4990497;28;20025;-63
2021/04/10 08:56:24;;;;;;;1.20;0.77;;;;;;;22.55;29.36;94060.72;4979459;28;20024;-63
2021/04/10 08:58:50;;;;;;;1.67;0.68;;;;;;;22.55;29.35;94055.41;4978569;28;20022;-62
2021/04/10 09:01:23;;;;;;;1.60;0.80;;;;;;;22.53;29.10;94047.75;5005392;28;20041;-63
2021/04/10 09:03:52;;;;;;;1.02;0.70;;;;;;;22.50;29.03;94043.00;4971709;28;20088;-63
2021/04/10 09:06:29;;;;;;;2.38;0.68;;;;;;;22.56;29.21;94044.53;4977149;28;20038;-63
2021/04/10 09:09:10;;;;;;;1.15;0.68;;;;;;;22.56;29.25;94049.84;4996862;28;20030;-63
2021/04/10 09:11:39;;;;;;;0.60;0.60;;;;;;;22.50;29.21;94047.50;4993179;28;20029;-63
2021/04/10 09:14:07;;;;;;;0.95;0.73;;;;;;;22.50;29.13;94043.00;5024716;28;20042;-63
2021/04/10 09:16:43;;;;;;;1.23;0.60;;;;;;;22.51;29.44;94049.09;4991481;28;20049;-63
2021/04/10 09:19:11;;;;;;;1.00;0.60;;;;;;;22.52;29.31;94040.06;4971598;28;20026;-63
2021/04/10 09:21:48;;;;;;;1.98;0.77;;;;;;;22.51;29.12;94039.28;4992974;28;20034;-63
2021/04/10 09:24:17;;;;;;;1.27;0.70;;;;;;;22.51;29.16;94041.94;5020577;28;20038;-63
2021/04/10 09:27:00;;;;;;;3.95;1.02;;;;;;;22.49;28.76;94035.34;4994925;28;20118;-67
2021/04/10 09:29:27;;;;;;;3.13;0.93;;;;;;;22.44;28.49;94030.88;4993975;28;20120;-63
2021/04/10 09:31:56;;;;;;;4.05;2.10;;;;;;;22.44;28.87;94031.66;4971540;28;20030;-60
2021/04/10 09:34:43;;;;;;;9.07;1.90;;;;;;;22.45;28.84;94029.81;4998376;28;20044;-61
2021/04/10 09:37:09;;;;;;;5.88;2.00;;;;;;;22.41;29.06;94034.09;4993604;28;20026;-60
2021/04/10 09:39:56;;;;;;;6.65;1.92;;;;;;;22.45;29.21;94038.56;5007126;28;20041;-60
2021/04/10 09:42:39;;;;;;;10.35;1.77;;;;;;;22.47;28.88;94035.63;4990115;28;20023;-60
2021/04/10 09:45:19;;;;;;;3.72;1.98;;;;;;;22.44;28.88;94033.53;4990550;28;20038;-61
2021/04/10 09:50:26;;;;;;;3.70;1.77;;;;;;;22.49;29.14;94032.69;4996551;28;20038;-60
2021/04/10 09:53:04;;;;;;;3.58;1.77;;;;;;;22.48;28.93;94037.19;4993958;28;20034;-60
2021/04/10 09:55:37;;;;;;;3.60;1.67;;;;;;;22.49;28.93;94032.69;4977555;28;20029;-61
2021/04/10 09:58:05;;;;;;;2.95;1.50;;;;;;;22.47;29.13;94022.38;4979033;28;20022;-61
2021/04/10 10:00:38;;;;;;;2.55;1.63;;;;;;;22.49;28.88;94020.22;4991873;28;20077;-60
2021/04/10 10:03:08;;;;;;;3.60;1.52;;;;;;;22.50;28.90;94021.00;4996630;28;20084;-60
2021/04/10 10:05:39;;;;;;;3.80;1.50;;;;;;;22.49;29.04;94022.88;5005741;28;20030;-61
2021/04/10 10:08:09;;;;;;;4.22;1.80;;;;;;;22.49;28.90;94030.84;5003798;28;20077;-60
2021/04/10 10:10:48;;;;;;;2.97;1.48;;;;;;;22.50;28.93;94026.31;5000786;28;20026;-60
2021/04/10 10:13:20;;;;;;;3.67;1.75;;;;;;;22.46;29.16;94023.44;5006326;28;20028;-61
2021/04/10 10:15:48;;;;;;;2.90;1.70;;;;;;;22.45;29.15;94022.66;4973323;28;20054;-60
2021/04/10 10:18:13;;;;;;;3.22;1.35;;;;;;;22.45;28.95;94014.72;4965531;28;20026;-61
2021/04/10 10:20:39;;;;;;;2.72;1.60;;;;;;;22.44;29.21;94012.34;4993186;28;20037;-61
2021/04/10 10:23:15;;;;;;;2.60;1.30;;;;;;;22.47;29.08;94006.47;4975221;28;20034;-61
2021/04/10 10:25:41;;;;;;;2.80;1.30;;;;;;;22.44;29.12;94013.13;4975363;28;20023;-60
2021/04/10 10:28:08;;;;;;;2.80;1.35;;;;;;;22.45;29.29;94011.28;4989162;28;20045;-60
2021/04/10 10:30:35;;;;;;;4.30;1.25;;;;;;;22.43;29.18;94000.94;4975371;28;20097;-62
2021/04/10 10:33:01;;;;;;;3.55;1.40;;;;;;;22.41;29.00;93997.00;4988423;28;20026;-60
2021/04/10 10:35:30;;;;;;;2.58;1.30;;;;;;;22.42;28.98;93998.56;4983813;28;20024;-60
2021/04/10 10:38:05;;;;;;;3.00;1.30;;;;;;;22.45;28.81;93998.81;4991457;28;20030;-60
2021/04/10 10:40:32;;;;;;;2.53;1.33;;;;;;;22.43;28.83;94006.25;4989755;28;20096;-61
2021/04/10 10:43:07;;;;;;;2.13;1.42;;;;;;;22.42;29.04;93999.38;4977247;28;20175;-60
2021/04/10 10:45:47;;;;;;;2.65;1.40;;;;;;;22.44;28.74;93991.13;5004903;28;20026;-60
2021/04/10 10:48:22;;;;;;;2.30;1.45;;;;;;;22.43;28.98;93990.34;4977267;28;20021;-60
2021/04/10 10:51:08;;;;;;;3.58;1.10;;;;;;;22.39;28.84;93981.41;5006596;28;20022;-60
2021/04/10 10:53:36;;;;;;;2.65;1.17;;;;;;;22.40;28.69;93979.53;4992821;28;20037;-61
2021/04/10 10:56:08;;;;;;;2.97;1.50;;;;;;;22.44;28.75;93985.84;4971587;28;20021;-61
2021/04/10 10:58:34;;;;;;;2.13;1.40;;;;;;;22.39;28.86;93978.75;4973774;28;20125;-61
2021/04/10 11:01:02;;;;;;;2.05;1.20;;;;;;;22.40;28.85;93968.94;5008943;28;20053;-61
2021/04/10 11:03:28;;;;;;;2.38;1.20;;;;;;;22.39;28.93;93964.69;4995265;28;20036;-61
2021/04/10 11:05:54;;;;;;;3.17;1.10;;;;;;;22.40;29.07;93955.69;4989237;28;20047;-61
2021/04/10 11:08:20;;;;;;;2.75;1.23;;;;;;;22.40;28.98;93958.34;4959666;28;20038;-61
2021/04/10 11:10:45;;;;;;;3.97;1.48;;;;;;;22.38;28.77;93949.88;4958907;28;20125;-61
2021/04/10 11:13:12;;;;;;;2.33;1.15;;;;;;;22.39;29.06;93944.31;4975539;28;20112;-60
2021/04/10 11:15:38;;;;;;;1.70;1.17;;;;;;;22.38;28.68;93939.28;4974502;28;20030;-61
2021/04/10 11:18:04;;;;;;;1.77;1.17;;;;;;;22.39;29.12;93940.84;4986634;28;20054;-60
2021/04/10 11:20:31;;;;;;;2.03;1.25;;;;;;;22.39;29.20;93930.25;5012777;28;20093;-60
2021/04/10 11:23:09;;;;;;;1.40;1.17;;;;;;;22.42;29.16;93935.00;4975044;28;20030;-60
2021/04/10 11:25:51;;;;;;;2.67;1.05;;;;;;;22.40;28.95;93922.03;4991349;28;20036;-60
2021/04/10 11:28:30;;;;;;;1.80;1.27;;;;;;;22.40;29.10;93919.38;4957992;28;20031;-60
2021/04/10 11:31:07;;;;;;;2.23;1.10;;;;;;;22.42;28.82;93924.41;4993916;28;20132;-60
2021/04/10 11:33:37;;;;;;;1.77;0.95;;;;;;;22.36;28.69;93915.72;4974767;28;20141;-61
2021/04/10 11:36:03;;;;;;;;;;;;;;;22.42;29.04;93911.94;4964413;28;20022;-60
2021/04/10 11:38:32;;;;;;;1.52;1.10;;;;;;;22.40;28.83;93906.13;4975453;28;19921;-62
2021/04/10 11:40:57;;;;;;;1.98;0.88;;;;;;;22.39;29.02;93899.28;5020349;28;20022;-60
2021/04/10 11:43:23;;;;;;;2.13;1.10;;;;;;;22.39;29.15;93896.63;4958539;28;20027;-61